アンカレッジ/テッド・スティーブンス の空港の天気 - METARとTAF

テッド・スティーブンス・アンカレッジ国際空港 ( PANC / ANC ) - アメリカ アラスカ州アンカレッジ
飛行場実況気象(Metar)
観測時間10/21 06:53 AKDT (10/21 14:53 UTC)
風向・風速北 7m/s
視程10km以上
天気現象
なし
気温-0.6℃
湿度72%
気圧1033.9hPa
METARPANC 211453Z 35013KT 10SM CLR M01/M05 A3053 RMK AO2 SLP339 T10061050 50003
過去の天気等 Google飛行場航空写真 Wunderground天気予報

過去48時間のMETAR

飛行場予報(TAF)
発表時間: 10/21 07:00 AKDT (10/21 15:00 UTC)
予報対象時間: 21日7時 AKDT ~ 22日10時 AKDT
風向・風速北北西 6m/s
視程10km以上
なし
21日18時 AKDT から
風向・風速北 3m/s
視程10km以上
なし
PANC 211500Z 2115/2218 34012KT P6SM SKC
FM220200 01006KT P6SM SKC